PWSweather.com
Personal Weather Stations
Station Observations
SWHWX01
St AppolinardFR 38160

St AppolinardFR 38160

Lat: 45.191, Lon: 5.268

Elevation: 1460

Station Type: Davis Vantage Pro2 Plus

www.sweetwebhome.com/?show=wxindex

High Low Average
Temperature 69.5°F20.8°F 54.5°F12.5°F 61.3°F16.3°F
Dew Point 56.0°F13.3°F 47.6°F8.7°F 52.3°F11.3°F
Winds 8.2 mph SW13.2 mph SW Calm Calm 2.8 mph 4.5 mph
Wind Gusts 13.0 mph20.9 mph -- 4.8 mph7.7 mph
Humidity 85% 62% 72%
Pressure 30.09 in1019.00 in 29.92 in1013.20 in -
Precipitation 0.00 in0.00 in - -
Hour Temp Dew Point Humidity Winds Wind Gusts Pressure Precip Precip Rate Daily Precip Total
12:00 AM 60.1°F15.6°C 51.4°F10.8°C 73% 1.6 mph SW2.6 kmh SW 3.0 mph4.8 kmh 29.92 in1013.2 mb - 0.00 in0.0 mm 0.00 in0.0 mm
12:30 AM 60.1°F15.6°C 51.0°F10.6°C 72% 1.7 mph SW2.7 kmh SW 3.0 mph4.8 kmh 29.93 in1013.5 mb - 0.00 in0.0 mm 0.00 in0.0 mm
01:00 AM 59.1°F15.1°C 50.4°F10.2°C 73% Calm Calm -- 29.94 in1013.9 mb - 0.00 in0.0 mm 0.00 in0.0 mm
01:30 AM 58.9°F14.9°C 50.6°F10.3°C 74% 1.1 mph SW1.8 kmh SW 2.0 mph3.2 kmh 29.95 in1014.2 mb - 0.00 in0.0 mm 0.00 in0.0 mm
02:00 AM 58.8°F14.9°C 50.2°F10.1°C 73% Calm Calm -- 29.96 in1014.6 mb - 0.00 in0.0 mm 0.00 in0.0 mm
02:30 AM 57.8°F14.3°C 49.6°F9.8°C 74% 1.2 mph SW1.9 kmh SW 2.0 mph3.2 kmh 29.96 in1014.6 mb - 0.00 in0.0 mm 0.00 in0.0 mm
03:00 AM 57.4°F14.1°C 49.5°F9.7°C 75% 1.5 mph SW2.4 kmh SW 2.0 mph3.2 kmh 29.96 in1014.6 mb - 0.00 in0.0 mm 0.00 in0.0 mm
03:30 AM 57.1°F13.9°C 48.9°F9.4°C 74% Calm Calm 1.0 mph1.6 kmh 29.96 in1014.6 mb - 0.00 in0.0 mm 0.00 in0.0 mm
04:00 AM 56.8°F13.8°C 48.2°F9.0°C 73% 2.6 mph SW4.2 kmh SW 3.0 mph4.8 kmh 29.97 in1014.9 mb - 0.00 in0.0 mm 0.00 in0.0 mm
04:30 AM 55.7°F13.2°C 47.9°F8.8°C 75% 2.8 mph SW4.5 kmh SW 3.0 mph4.8 kmh 29.96 in1014.6 mb - 0.00 in0.0 mm 0.00 in0.0 mm
05:00 AM 56.7°F13.7°C 47.8°F8.8°C 72% 1.7 mph SW2.7 kmh SW 2.0 mph3.2 kmh 29.97 in1014.9 mb - 0.00 in0.0 mm 0.00 in0.0 mm
05:30 AM 56.5°F13.6°C 47.6°F8.7°C 72% 1.2 mph SW1.9 kmh SW 2.0 mph3.2 kmh 29.97 in1014.9 mb - 0.00 in0.0 mm 0.00 in0.0 mm
06:00 AM 56.1°F13.4°C 47.9°F8.8°C 74% Calm Calm -- 29.98 in1015.2 mb - 0.00 in0.0 mm 0.00 in0.0 mm
06:30 AM 55.1°F12.8°C 47.7°F8.7°C 76% 0.1 mph SW0.2 kmh SW -- 29.98 in1015.2 mb - 0.00 in0.0 mm 0.00 in0.0 mm
07:00 AM 54.9°F12.7°C 47.8°F8.8°C 77% 2.3 mph SW3.7 kmh SW 3.0 mph4.8 kmh 29.98 in1015.2 mb - 0.00 in0.0 mm 0.00 in0.0 mm
07:30 AM 54.5°F12.5°C 47.8°F8.8°C 78% 1.0 mph SW1.6 kmh SW 2.0 mph3.2 kmh 30.00 in1015.9 mb - 0.00 in0.0 mm 0.00 in0.0 mm
08:00 AM 57.3°F14.1°C 49.4°F9.7°C 75% Calm Calm 1.0 mph1.6 kmh 30.01 in1016.3 mb - 0.00 in0.0 mm 0.00 in0.0 mm
08:30 AM 59.3°F15.2°C 49.9°F9.9°C 71% Calm Calm -- 30.01 in1016.3 mb - 0.00 in0.0 mm 0.00 in0.0 mm
09:00 AM 60.2°F15.7°C 51.1°F10.6°C 72% 1.8 mph WSW2.9 kmh WSW 4.0 mph6.4 kmh 30.02 in1016.6 mb - 0.00 in0.0 mm 0.00 in0.0 mm
09:30 AM 61.1°F16.2°C 51.6°F10.9°C 71% 6.2 mph WSW10.0 kmh WSW 8.0 mph12.9 kmh 30.03 in1016.9 mb - 0.00 in0.0 mm 0.00 in0.0 mm
10:00 AM 61.2°F16.2°C 51.7°F10.9°C 71% 4.4 mph SW7.1 kmh SW 8.0 mph12.9 kmh 30.05 in1017.6 mb - 0.00 in0.0 mm 0.00 in0.0 mm
10:30 AM 61.3°F16.3°C 51.8°F11.0°C 71% 4.5 mph WSW7.2 kmh WSW 8.0 mph12.9 kmh 30.05 in1017.6 mb - 0.00 in0.0 mm 0.00 in0.0 mm
11:00 AM 61.4°F16.3°C 51.9°F11.1°C 71% 3.3 mph WSW5.3 kmh WSW 7.0 mph11.3 kmh 30.06 in1017.9 mb - 0.00 in0.0 mm 0.00 in0.0 mm
11:30 AM 61.9°F16.6°C 52.0°F11.1°C 70% 5.2 mph W8.4 kmh W 10.0 mph16.1 kmh 30.07 in1018.3 mb - 0.00 in0.0 mm 0.00 in0.0 mm
12:00 PM 61.9°F16.6°C 52.0°F11.1°C 70% 1.1 mph SSW1.8 kmh SSW 2.0 mph3.2 kmh 30.07 in1018.3 mb - 0.00 in0.0 mm 0.00 in0.0 mm
12:30 PM 62.8°F17.1°C 52.8°F11.6°C 70% 3.0 mph SW4.8 kmh SW 6.0 mph9.7 kmh 30.07 in1018.3 mb - 0.00 in0.0 mm 0.00 in0.0 mm
01:00 PM 63.8°F17.7°C 53.1°F11.7°C 68% 3.2 mph S5.1 kmh S 4.0 mph6.4 kmh 30.07 in1018.3 mb - 0.00 in0.0 mm 0.00 in0.0 mm
01:30 PM 67.8°F19.9°C 54.8°F12.7°C 63% 5.3 mph SW8.5 kmh SW 11.0 mph17.7 kmh 30.05 in1017.6 mb - 0.00 in0.0 mm 0.00 in0.0 mm
02:00 PM 69.5°F20.8°C 55.9°F13.3°C 62% 3.1 mph SW5.0 kmh SW 11.0 mph17.7 kmh 30.05 in1017.6 mb - 0.00 in0.0 mm 0.00 in0.0 mm
02:30 PM 68.6°F20.3°C 55.1°F12.8°C 62% 8.2 mph SW13.2 kmh SW 13.0 mph20.9 kmh 30.05 in1017.6 mb - 0.00 in0.0 mm 0.00 in0.0 mm
03:00 PM 67.4°F19.7°C 54.8°F12.7°C 64% 4.2 mph SW6.8 kmh SW 8.0 mph12.9 kmh 30.05 in1017.6 mb - 0.00 in0.0 mm 0.00 in0.0 mm
03:30 PM 67.3°F19.6°C 54.7°F12.6°C 64% 2.4 mph SSW3.9 kmh SSW 3.0 mph4.8 kmh 30.05 in1017.6 mb - 0.00 in0.0 mm 0.00 in0.0 mm
04:00 PM 66.6°F19.2°C 54.9°F12.7°C 66% 5.0 mph SW8.0 kmh SW 7.0 mph11.3 kmh 30.05 in1017.6 mb - 0.00 in0.0 mm 0.00 in0.0 mm
04:30 PM 67.6°F19.8°C 54.6°F12.6°C 63% 3.8 mph SSW6.1 kmh SSW 6.0 mph9.7 kmh 30.04 in1017.3 mb - 0.00 in0.0 mm 0.00 in0.0 mm
05:00 PM 66.4°F19.1°C 54.7°F12.6°C 66% 3.5 mph SW5.6 kmh SW 8.0 mph12.9 kmh 30.05 in1017.6 mb - 0.00 in0.0 mm 0.00 in0.0 mm
05:30 PM 65.9°F18.8°C 54.6°F12.6°C 67% 2.5 mph SW4.0 kmh SW 5.0 mph8.0 kmh 30.05 in1017.6 mb - 0.00 in0.0 mm 0.00 in0.0 mm
06:00 PM 64.7°F18.2°C 54.7°F12.6°C 70% 4.7 mph WSW7.6 kmh WSW 7.0 mph11.3 kmh 30.05 in1017.6 mb - 0.00 in0.0 mm 0.00 in0.0 mm
06:30 PM 63.4°F17.4°C 54.6°F12.6°C 73% 4.7 mph SW7.6 kmh SW 9.0 mph14.5 kmh 30.05 in1017.6 mb - 0.00 in0.0 mm 0.00 in0.0 mm
07:00 PM 63.1°F17.3°C 54.6°F12.6°C 74% 3.8 mph WSW6.1 kmh WSW 6.0 mph9.7 kmh 30.06 in1017.9 mb - 0.00 in0.0 mm 0.00 in0.0 mm
07:30 PM 62.9°F17.2°C 54.5°F12.5°C 74% 3.0 mph WSW4.8 kmh WSW 4.0 mph6.4 kmh 30.07 in1018.3 mb - 0.00 in0.0 mm 0.00 in0.0 mm
08:00 PM 62.5°F16.9°C 54.8°F12.7°C 76% 2.8 mph WSW4.5 kmh WSW 4.0 mph6.4 kmh 30.07 in1018.3 mb - 0.00 in0.0 mm 0.00 in0.0 mm
08:30 PM 61.9°F16.6°C 55.0°F12.8°C 78% 2.5 mph WSW4.0 kmh WSW 3.0 mph4.8 kmh 30.07 in1018.3 mb - 0.00 in0.0 mm 0.00 in0.0 mm
09:00 PM 62.0°F16.7°C 55.4°F13.0°C 79% 2.5 mph WSW4.0 kmh WSW 3.0 mph4.8 kmh 30.08 in1018.6 mb - 0.00 in0.0 mm 0.00 in0.0 mm
09:30 PM 61.9°F16.6°C 55.7°F13.2°C 80% 4.3 mph WSW6.9 kmh WSW 5.0 mph8.0 kmh 30.08 in1018.6 mb - 0.00 in0.0 mm 0.00 in0.0 mm
10:00 PM 61.5°F16.4°C 56.0°F13.3°C 82% 3.1 mph SW5.0 kmh SW 5.0 mph8.0 kmh 30.08 in1018.6 mb - 0.00 in0.0 mm 0.00 in0.0 mm
10:30 PM 61.2°F16.2°C 55.7°F13.2°C 82% 5.4 mph SW8.7 kmh SW 9.0 mph14.5 kmh 30.08 in1018.6 mb - 0.00 in0.0 mm 0.00 in0.0 mm
11:00 PM 60.9°F16.1°C 56.0°F13.3°C 84% 6.2 mph SW10.0 kmh SW 9.0 mph14.5 kmh 30.09 in1019.0 mb - 0.00 in0.0 mm 0.00 in0.0 mm
11:30 PM 60.4°F15.8°C 55.9°F13.3°C 85% 3.6 mph SW5.8 kmh SW 6.0 mph9.7 kmh 30.09 in1019.0 mb - 0.00 in0.0 mm 0.00 in0.0 mm